Hustisford, Wisconsin
Current Conditions -  °F | °C
As of 8:15 AM on Monday 22 Dec 2014 (Local Time) from KUNU Reporting Station
Haze Haze  
Wind Chill: 23°   Ceiling: 3100
Heat Index: 32°   Visibility: 4mi
Dew Point: 30°   Wind: 10mph
Humidity: 92%   Direction: 110°ESE
Pressure: 29.89"   Gusts: NA
Location:  43.35°N, 88.6°W
Report Text: KUNU 221415Z AUTO 11009KT 4SM BR OVC031 00/M01 A2989 RMK AO2 T10011012
Loading
Personal Weather Stations






























Interactive Weather Map New forecast layout! Learn more

10-Day Weather Forecast

Advertisements
Track Severe Weather on mobile